createdAt,value
2019-01-25T00:02:03.011Z,25.57
2019-01-25T00:04:34.012Z,27.83
2019-01-25T00:07:04.470Z,29.03
2019-01-25T00:09:35.077Z,27.77
2019-01-25T00:12:05.894Z,27.40
2019-01-25T00:14:36.952Z,29.10
2019-01-25T00:17:08.341Z,27.20
2019-01-25T00:19:38.690Z,26.00
2019-01-25T00:22:09.456Z,26.23
2019-01-25T00:24:40.376Z,27.70
2019-01-25T00:27:10.928Z,27.20
2019-01-25T00:29:41.592Z,25.43
2019-01-25T00:32:12.291Z,27.83
2019-01-25T00:34:42.475Z,25.80
2019-01-25T00:37:14.767Z,26.27
2019-01-25T00:39:45.706Z,25.87
2019-01-25T00:42:16.448Z,26.90
2019-01-25T00:44:46.957Z,26.30
2019-01-25T00:47:17.932Z,27.67
2019-01-25T00:49:48.635Z,29.97
2019-01-25T00:52:19.660Z,27.60
2019-01-25T00:54:50.724Z,29.70
2019-01-25T00:57:21.090Z,25.87
2019-01-25T00:59:51.595Z,31.87
2019-01-25T01:02:22.107Z,27.17
2019-01-25T01:04:52.611Z,28.97
2019-01-25T01:07:23.242Z,30.00
2019-01-25T01:09:53.515Z,31.37
2019-01-25T01:12:27.269Z,32.13
2019-01-25T01:14:57.807Z,29.20
2019-01-25T01:17:28.761Z,28.27
2019-01-25T01:20:00.052Z,25.43
2019-01-25T01:22:30.587Z,27.00
2019-01-25T01:25:01.614Z,28.57
2019-01-25T01:27:32.267Z,30.30
2019-01-25T01:30:04.057Z,27.67
2019-01-25T01:32:35.897Z,27.00
2019-01-25T01:35:08.464Z,30.83
2019-01-25T01:37:39.294Z,28.70
2019-01-25T01:40:21.810Z,31.77
2019-01-25T01:42:48.276Z,27.90
2019-01-25T01:45:20.461Z,31.67
2019-01-25T01:47:51.202Z,31.00
2019-01-25T01:50:24.226Z,30.60
2019-01-25T01:52:54.984Z,31.37
2019-01-25T01:55:25.575Z,33.43
2019-01-25T01:57:56.296Z,32.53
2019-01-25T02:00:28.308Z,31.67
2019-01-25T02:02:58.716Z,34.43
2019-01-25T02:05:29.584Z,31.50
2019-01-25T02:08:00.547Z,29.63
2019-01-25T02:10:31.079Z,30.73
2019-01-25T02:13:02.856Z,33.40
2019-01-25T02:15:33.738Z,34.00
2019-01-25T02:18:05.490Z,31.20
2019-01-25T02:20:36.059Z,34.80
2019-01-25T02:23:07.259Z,30.70
2019-01-25T02:25:38.383Z,32.97
2019-01-25T02:28:09.711Z,36.07
2019-01-25T02:30:40.663Z,33.17
2019-01-25T02:33:11.584Z,36.97
2019-01-25T02:35:42.316Z,34.00
2019-01-25T02:38:14.892Z,33.37
2019-01-25T02:40:45.539Z,31.47
2019-01-25T02:43:17.526Z,31.33
2019-01-25T02:45:47.973Z,34.37
2019-01-25T02:48:20.741Z,36.10
2019-01-25T02:50:52.877Z,35.97
2019-01-25T02:53:23.873Z,35.37
2019-01-25T02:55:54.379Z,33.60
2019-01-25T02:58:25.086Z,34.80
2019-01-25T03:00:56.774Z,37.17
2019-01-25T03:03:28.927Z,33.93
2019-01-25T03:05:59.447Z,34.87
2019-01-25T03:08:29.897Z,37.37
2019-01-25T03:11:00.292Z,34.17
2019-01-25T03:13:30.604Z,34.33
2019-01-25T03:16:01.175Z,35.90
2019-01-25T03:18:32.699Z,35.17
2019-01-25T03:21:07.189Z,35.03
2019-01-25T03:23:39.190Z,34.93
2019-01-25T03:26:10.011Z,35.40
2019-01-25T03:28:41.499Z,35.97
2019-01-25T03:31:12.344Z,34.90
2019-01-25T03:33:42.866Z,33.83
2019-01-25T03:36:13.399Z,34.53
2019-01-25T03:38:45.142Z,34.30
2019-01-25T03:41:16.267Z,35.63
2019-01-25T03:43:47.032Z,35.10
2019-01-25T03:46:17.559Z,33.80
2019-01-25T03:48:49.304Z,33.00
2019-01-25T03:51:19.875Z,30.67
2019-01-25T03:53:50.532Z,37.27
2019-01-25T03:56:22.228Z,37.70
2019-01-25T03:58:53.249Z,35.53
2019-01-25T04:01:23.971Z,36.93
2019-01-25T04:03:55.025Z,34.80
2019-01-25T04:06:25.750Z,35.57
2019-01-25T04:08:57.005Z,37.23
2019-01-25T04:11:28.105Z,36.60
2019-01-25T04:13:59.368Z,33.80
2019-01-25T04:16:30.024Z,36.27
2019-01-25T04:19:00.601Z,38.30
2019-01-25T04:21:31.043Z,35.30
2019-01-25T04:24:01.940Z,36.10
2019-01-25T04:26:33.095Z,34.53
2019-01-25T04:29:04.652Z,39.50
2019-01-25T04:31:36.128Z,35.07
2019-01-25T04:34:07.256Z,35.07
2019-01-25T04:36:38.533Z,36.47
2019-01-25T04:39:10.625Z,36.57
2019-01-25T04:41:41.721Z,37.67
2019-01-25T04:44:12.374Z,35.23
2019-01-25T04:46:43.299Z,33.80
2019-01-25T04:49:14.614Z,36.87
2019-01-25T04:51:45.521Z,38.07
2019-01-25T04:54:16.063Z,36.00
2019-01-25T04:56:47.000Z,38.80
2019-01-25T04:59:18.865Z,36.40
2019-01-25T05:01:49.578Z,38.70
2019-01-25T05:04:20.274Z,35.30
2019-01-25T05:06:51.657Z,38.50
2019-01-25T05:09:22.381Z,36.07
2019-01-25T05:11:53.095Z,37.30
2019-01-25T05:14:23.849Z,34.40
2019-01-25T05:16:54.514Z,36.67
2019-01-25T05:19:25.252Z,38.40
2019-01-25T05:21:55.909Z,37.60
2019-01-25T05:24:26.377Z,36.50
2019-01-25T05:26:59.909Z,36.17
2019-01-25T05:29:51.915Z,40.87
2019-01-25T05:32:22.747Z,38.00
2019-01-25T05:34:53.213Z,36.13
2019-01-25T05:37:23.667Z,36.60
2019-01-25T05:39:54.459Z,35.10
2019-01-25T05:42:25.097Z,37.40
2019-01-25T05:44:56.947Z,36.37
2019-01-25T05:47:27.681Z,36.30
2019-01-25T05:49:59.163Z,36.03
2019-01-25T05:52:29.907Z,34.37
2019-01-25T05:55:00.369Z,33.30
2019-01-25T05:57:31.297Z,36.13
2019-01-25T06:00:03.775Z,36.23
2019-01-25T06:02:35.408Z,34.20
2019-01-25T06:05:06.451Z,36.67
2019-01-25T06:07:38.382Z,37.60
2019-01-25T06:10:13.150Z,35.30
2019-01-25T06:12:43.727Z,38.00
2019-01-25T06:15:14.587Z,36.13
2019-01-25T06:17:45.191Z,37.07
2019-01-25T06:20:16.132Z,34.27
2019-01-25T06:22:47.149Z,33.60
2019-01-25T06:25:17.893Z,36.13
2019-01-25T06:27:48.886Z,36.87
2019-01-25T06:30:19.969Z,33.47
2019-01-25T06:32:50.809Z,33.17
2019-01-25T06:35:21.316Z,34.40
2019-01-25T06:37:51.945Z,37.27
2019-01-25T06:40:23.225Z,39.90
2019-01-25T06:42:54.186Z,36.33
2019-01-25T06:45:24.879Z,34.50
2019-01-25T06:47:55.694Z,33.43
2019-01-25T06:50:26.429Z,34.23
2019-01-25T06:52:56.928Z,36.10
2019-01-25T06:55:29.641Z,37.37
2019-01-25T06:58:29.342Z,38.10
2019-01-25T07:01:19.226Z,37.43
2019-01-25T07:03:49.739Z,39.97
2019-01-25T07:06:20.380Z,42.47
2019-01-25T07:08:51.025Z,36.83
2019-01-25T07:11:22.177Z,37.23
2019-01-25T07:13:52.406Z,35.67
2019-01-25T07:16:23.185Z,38.10
2019-01-25T07:18:53.899Z,35.60
2019-01-25T07:21:35.171Z,35.20
2019-01-25T07:24:06.212Z,39.17
2019-01-25T07:26:37.039Z,36.47
2019-01-25T07:29:07.985Z,33.10
2019-01-25T07:31:38.566Z,35.23
2019-01-25T07:34:11.567Z,34.57
2019-01-25T07:36:42.794Z,35.23
2019-01-25T07:39:32.930Z,37.60
2019-01-25T07:42:03.970Z,36.10
2019-01-25T07:44:34.382Z,35.70
2019-01-25T07:47:05.179Z,34.50
2019-01-25T07:49:35.993Z,34.70
2019-01-25T07:52:06.603Z,36.10
2019-01-25T07:54:37.434Z,43.87
2019-01-25T07:57:08.025Z,36.70
2019-01-25T07:59:38.523Z,37.60
2019-01-25T08:02:09.033Z,37.33
2019-01-25T08:04:40.030Z,39.97
2019-01-25T08:07:10.625Z,38.93
2019-01-25T08:09:41.632Z,38.60
2019-01-25T08:12:12.306Z,37.70
2019-01-25T08:14:43.292Z,36.80
2019-01-25T08:17:13.774Z,35.83
2019-01-25T08:19:44.452Z,40.60
2019-01-25T08:22:15.203Z,41.27
2019-01-25T08:24:45.874Z,39.50
2019-01-25T08:27:16.507Z,39.03
2019-01-25T08:29:47.596Z,40.20
2019-01-25T08:32:18.389Z,40.83
2019-01-25T08:34:49.028Z,39.17
2019-01-25T08:37:20.007Z,36.80
2019-01-25T08:39:50.906Z,37.60
2019-01-25T08:42:22.026Z,40.13
2019-01-25T08:44:52.932Z,39.87
2019-01-25T08:47:23.326Z,43.00
2019-01-25T08:49:58.026Z,39.40
2019-01-25T08:52:26.767Z,42.03
2019-01-25T08:54:57.449Z,42.37
2019-01-25T08:57:28.241Z,37.07
2019-01-25T08:59:59.122Z,37.87
2019-01-25T09:02:30.867Z,39.57
2019-01-25T09:05:01.260Z,38.20
2019-01-25T09:07:31.538Z,37.90
2019-01-25T09:10:02.444Z,37.60
2019-01-25T09:12:45.648Z,35.13
2019-01-25T09:15:19.135Z,39.70
2019-01-25T09:17:49.844Z,39.43
2019-01-25T09:20:21.694Z,44.87
2019-01-25T09:22:51.971Z,38.67
2019-01-25T09:25:22.623Z,40.57
2019-01-25T09:27:52.847Z,36.60
2019-01-25T09:30:23.835Z,34.87
2019-01-25T09:32:54.246Z,34.47
2019-01-25T09:35:25.007Z,38.83
2019-01-25T09:37:55.750Z,37.50
2019-01-25T09:40:28.892Z,35.63
2019-01-25T09:43:00.635Z,34.40
2019-01-25T09:45:31.290Z,34.87
2019-01-25T09:48:02.292Z,35.03
2019-01-25T09:50:33.005Z,33.13
2019-01-25T09:53:03.294Z,38.47
2019-01-25T09:55:34.946Z,38.17
2019-01-25T09:58:08.675Z,38.13
2019-01-25T10:00:55.488Z,36.30
2019-01-25T10:03:25.702Z,36.63
2019-01-25T10:05:56.535Z,36.07
2019-01-25T10:08:27.351Z,36.60
2019-01-25T10:10:57.791Z,39.57
2019-01-25T10:13:28.794Z,39.50
2019-01-25T10:15:59.702Z,37.07
2019-01-25T10:18:30.538Z,35.33
2019-01-25T10:21:01.321Z,38.20
2019-01-25T10:23:32.624Z,36.77
2019-01-25T10:26:03.482Z,34.33
2019-01-25T10:28:34.419Z,36.27
2019-01-25T10:31:06.228Z,37.97
2019-01-25T10:33:37.022Z,37.10
2019-01-25T10:36:07.649Z,35.13
2019-01-25T10:38:38.424Z,38.10
2019-01-25T10:41:12.124Z,34.93
2019-01-25T10:43:42.594Z,36.87
2019-01-25T10:46:13.548Z,41.57
2019-01-25T10:48:43.703Z,38.40
2019-01-25T10:51:15.348Z,38.70
2019-01-25T10:53:46.263Z,40.77
2019-01-25T10:56:16.544Z,39.80
2019-01-25T10:58:47.148Z,37.57
2019-01-25T11:01:18.195Z,40.13
2019-01-25T11:03:53.357Z,38.87
2019-01-25T11:06:25.066Z,35.60
2019-01-25T11:08:56.421Z,38.27
2019-01-25T11:11:26.600Z,34.30
2019-01-25T11:13:57.263Z,34.90
2019-01-25T11:16:28.103Z,32.80
2019-01-25T11:18:58.861Z,35.93
2019-01-25T11:21:29.930Z,36.17
2019-01-25T11:24:01.385Z,38.23
2019-01-25T11:26:31.573Z,36.97
2019-01-25T11:29:02.761Z,37.00
2019-01-25T11:31:33.603Z,37.50
2019-01-25T11:34:04.855Z,37.33
2019-01-25T11:36:35.810Z,34.93
2019-01-25T11:39:10.863Z,39.30
2019-01-25T11:41:41.635Z,36.27
2019-01-25T11:44:12.244Z,38.07
2019-01-25T11:46:42.946Z,40.80
2019-01-25T11:49:14.065Z,36.30
2019-01-25T11:51:46.251Z,40.07
2019-01-25T11:54:18.560Z,35.93
2019-01-25T11:56:50.789Z,35.90
2019-01-25T11:59:21.849Z,36.57
2019-01-25T12:01:52.551Z,34.97
2019-01-25T12:04:25.407Z,36.60
2019-01-25T12:06:55.786Z,37.00
2019-01-25T12:09:26.228Z,34.70
2019-01-25T12:11:57.055Z,34.17
2019-01-25T12:14:30.310Z,40.53
2019-01-25T12:17:00.797Z,40.87
2019-01-25T12:19:31.673Z,40.73
2019-01-25T12:22:02.248Z,40.10
2019-01-25T12:24:32.525Z,35.10
2019-01-25T12:27:04.283Z,36.33
2019-01-25T12:29:35.423Z,37.00
2019-01-25T12:32:06.347Z,35.67
2019-01-25T12:34:37.158Z,37.17
2019-01-25T12:37:08.167Z,34.47
2019-01-25T12:39:38.688Z,31.43
2019-01-25T12:42:09.830Z,34.37
2019-01-25T12:44:41.330Z,29.47
2019-01-25T12:47:11.719Z,30.97
2019-01-25T12:49:42.601Z,34.13
2019-01-25T12:52:13.884Z,33.33
2019-01-25T12:54:44.415Z,30.50
2019-01-25T12:57:15.218Z,33.50
2019-01-25T12:59:45.889Z,34.30
2019-01-25T13:02:16.385Z,36.90
2019-01-25T13:04:47.564Z,28.20
2019-01-25T13:07:18.377Z,32.77
2019-01-25T13:09:49.263Z,34.27
2019-01-25T13:12:25.065Z,29.20
2019-01-25T13:14:53.506Z,32.43
2019-01-25T13:17:24.342Z,37.37
2019-01-25T13:19:55.263Z,31.10
2019-01-25T13:22:26.858Z,31.90
2019-01-25T13:24:57.845Z,31.77
2019-01-25T13:27:29.295Z,36.70
2019-01-25T13:29:59.924Z,33.00
2019-01-25T13:32:30.661Z,32.10
2019-01-25T13:35:01.597Z,32.17
2019-01-25T13:37:32.033Z,32.30
2019-01-25T13:40:02.462Z,29.80
2019-01-25T13:42:34.011Z,30.33
2019-01-25T13:45:04.382Z,30.80
2019-01-25T13:47:35.361Z,30.10
2019-01-25T13:50:07.505Z,29.20
2019-01-25T13:52:38.551Z,32.70
2019-01-25T13:55:11.318Z,31.27
2019-01-25T13:57:42.162Z,32.00
2019-01-25T14:00:25.740Z,31.57
2019-01-25T14:02:56.474Z,30.63
2019-01-25T14:05:27.160Z,32.50
2019-01-25T14:07:57.822Z,31.60
2019-01-25T14:10:30.480Z,33.77
2019-01-25T14:13:00.855Z,34.20
2019-01-25T14:15:32.692Z,29.83
2019-01-25T14:18:03.669Z,32.60
2019-01-25T14:20:34.389Z,30.07
2019-01-25T14:23:06.184Z,33.27
2019-01-25T14:25:36.633Z,35.00
2019-01-25T14:28:08.774Z,30.70
2019-01-25T14:30:44.037Z,35.23
2019-01-25T14:33:14.717Z,35.27
2019-01-25T14:35:46.214Z,33.57
2019-01-25T14:38:18.392Z,31.83
2019-01-25T14:40:49.428Z,34.37
2019-01-25T14:43:20.145Z,37.37
2019-01-25T14:45:51.596Z,31.57
2019-01-25T14:48:23.698Z,35.20
2019-01-25T14:50:54.889Z,36.37
2019-01-25T14:53:26.028Z,35.27
2019-01-25T14:55:59.383Z,32.13
2019-01-25T14:58:30.332Z,33.60
2019-01-25T15:01:00.746Z,35.70
2019-01-25T15:03:32.887Z,35.87
2019-01-25T15:06:03.606Z,32.00
2019-01-25T15:08:34.671Z,32.23
2019-01-25T15:11:06.215Z,35.33
2019-01-25T15:13:37.267Z,34.20
2019-01-25T15:16:07.785Z,36.03
2019-01-25T15:18:38.153Z,35.20
2019-01-25T15:21:09.126Z,33.03
2019-01-25T15:23:39.744Z,33.83
2019-01-25T15:26:10.416Z,31.30
2019-01-25T15:28:41.433Z,34.03
2019-01-25T15:31:11.902Z,30.13
2019-01-25T15:33:42.737Z,31.13
2019-01-25T15:36:13.806Z,33.77
2019-01-25T15:38:44.303Z,33.17
2019-01-25T15:41:16.665Z,30.03
2019-01-25T15:43:48.032Z,31.97
2019-01-25T15:46:19.068Z,29.77
2019-01-25T15:48:50.363Z,32.20
2019-01-25T15:51:21.188Z,32.27
2019-01-25T15:53:52.351Z,38.13
2019-01-25T15:56:24.636Z,40.07
2019-01-25T15:58:55.758Z,44.80
2019-01-25T16:01:26.551Z,85.77
2019-01-25T16:03:57.539Z,50.00
2019-01-25T16:06:28.167Z,38.17
2019-01-25T16:08:58.909Z,33.50
2019-01-25T16:11:30.139Z,29.10
2019-01-25T16:14:02.667Z,31.50
2019-01-25T16:16:34.568Z,31.03
2019-01-25T16:19:07.522Z,30.57
2019-01-25T16:21:38.477Z,33.83
2019-01-25T16:24:10.063Z,33.00
2019-01-25T16:26:41.422Z,33.53
2019-01-25T16:29:12.064Z,33.10
2019-01-25T16:31:42.963Z,30.50
2019-01-25T16:34:14.683Z,31.00
2019-01-25T16:36:45.902Z,29.17
2019-01-25T16:39:16.929Z,32.67
2019-01-25T16:41:47.925Z,31.97
2019-01-25T16:44:25.580Z,32.73
2019-01-25T16:46:52.631Z,33.57
2019-01-25T16:49:23.962Z,34.00
2019-01-25T16:51:56.012Z,32.53
2019-01-25T16:54:27.789Z,32.73
2019-01-25T16:57:00.286Z,33.97
2019-01-25T16:59:31.353Z,31.57
2019-01-25T17:02:02.712Z,34.10
2019-01-25T17:04:33.942Z,33.50
2019-01-25T17:07:05.109Z,33.03
2019-01-25T17:09:37.063Z,35.00
2019-01-25T17:12:07.775Z,34.37
2019-01-25T17:14:40.155Z,31.50
2019-01-25T17:17:11.602Z,32.70
2019-01-25T17:19:42.584Z,32.40
2019-01-25T17:22:16.425Z,33.30
2019-01-25T17:24:48.562Z,33.57
2019-01-25T17:27:20.088Z,34.17
2019-01-25T17:29:51.425Z,34.00
2019-01-25T17:32:24.908Z,34.10
2019-01-25T17:34:55.638Z,33.10
2019-01-25T17:37:26.945Z,32.90
2019-01-25T17:39:57.950Z,30.70
2019-01-25T17:42:28.977Z,31.60
2019-01-25T17:45:00.250Z,31.53
2019-01-25T17:47:31.677Z,35.60
2019-01-25T17:50:03.667Z,34.77
2019-01-25T17:52:35.208Z,34.87
2019-01-25T17:55:07.287Z,33.10
2019-01-25T17:57:38.071Z,33.00
2019-01-25T18:00:13.700Z,35.70
2019-01-25T18:02:44.936Z,37.33
2019-01-25T18:05:16.948Z,31.27
2019-01-25T18:07:49.269Z,33.67
2019-01-25T18:10:21.606Z,33.20
2019-01-25T18:12:53.149Z,34.33
2019-01-25T18:15:24.219Z,34.30
2019-01-25T18:17:55.780Z,34.37
2019-01-25T18:20:27.519Z,32.33
2019-01-25T18:23:00.479Z,35.27
2019-01-25T18:25:44.066Z,33.27
2019-01-25T18:28:19.280Z,34.60
2019-01-25T18:31:02.045Z,36.67
2019-01-25T18:33:33.444Z,36.77
2019-01-25T18:36:05.877Z,33.03
2019-01-25T18:38:37.574Z,35.47
2019-01-25T18:41:08.947Z,34.00
2019-01-25T18:43:40.119Z,33.27
2019-01-25T18:46:11.120Z,35.93
2019-01-25T18:48:43.983Z,36.63
2019-01-25T18:51:15.157Z,35.03
2019-01-25T18:53:46.967Z,35.67
2019-01-25T18:56:21.013Z,39.13
2019-01-25T18:58:52.352Z,34.63
2019-01-25T19:01:24.084Z,33.17
2019-01-25T19:03:56.273Z,38.50
2019-01-25T19:06:28.485Z,37.00
2019-01-25T19:09:01.432Z,34.97
2019-01-25T19:11:32.869Z,35.43
2019-01-25T19:14:04.063Z,32.07
2019-01-25T19:16:35.184Z,32.07
2019-01-25T19:19:07.126Z,33.57
2019-01-25T19:21:38.449Z,29.57
2019-01-25T19:24:09.361Z,28.03
2019-01-25T19:26:41.765Z,33.77
2019-01-25T19:29:13.746Z,30.10
2019-01-25T19:31:45.218Z,33.83
2019-01-25T19:34:16.941Z,33.87
2019-01-25T19:36:48.146Z,31.43
2019-01-25T19:39:19.474Z,32.07
2019-01-25T19:41:51.055Z,28.60
2019-01-25T19:44:23.063Z,29.47
2019-01-25T19:46:54.409Z,29.87
2019-01-25T19:49:25.722Z,30.97
2019-01-25T19:51:57.366Z,30.67
2019-01-25T19:54:29.063Z,28.17
2019-01-25T19:57:01.270Z,32.47
2019-01-25T19:59:32.638Z,29.97
2019-01-25T20:02:05.007Z,32.50
2019-01-25T20:04:36.866Z,30.10
2019-01-25T20:07:08.085Z,32.23
2019-01-25T20:09:39.207Z,30.63
2019-01-25T20:12:10.484Z,30.93
2019-01-25T20:14:43.529Z,32.17
2019-01-25T20:17:15.490Z,31.00
2019-01-25T20:19:47.268Z,31.43
2019-01-25T20:22:17.792Z,28.30
2019-01-25T20:24:48.276Z,29.63
2019-01-25T20:27:19.178Z,28.70
2019-01-25T20:29:50.099Z,30.47
2019-01-25T20:32:20.860Z,33.97
2019-01-25T20:34:51.430Z,27.60
2019-01-25T20:37:21.835Z,30.27
2019-01-25T20:39:52.325Z,36.87
2019-01-25T20:42:22.763Z,30.80
2019-01-25T20:44:53.184Z,30.40
2019-01-25T20:47:23.704Z,33.77
2019-01-25T20:49:55.066Z,34.33
2019-01-25T20:52:25.496Z,35.33
2019-01-25T20:54:56.014Z,37.77
2019-01-25T20:57:26.442Z,46.57
2019-01-25T20:59:58.393Z,44.57
2019-01-25T21:02:28.798Z,37.67
2019-01-25T21:04:59.070Z,34.70
2019-01-25T21:07:30.943Z,32.80
2019-01-25T21:10:01.532Z,36.63
2019-01-25T21:12:32.660Z,34.60
2019-01-25T21:15:05.443Z,36.37
2019-01-25T21:17:39.244Z,33.93
2019-01-25T21:20:32.259Z,29.40
2019-01-25T21:23:05.067Z,35.03
2019-01-25T21:25:37.182Z,30.17
2019-01-25T21:28:09.447Z,31.70
2019-01-25T21:30:42.097Z,34.47
2019-01-25T21:33:13.551Z,32.70
2019-01-25T21:35:46.393Z,36.10
2019-01-25T21:38:17.891Z,34.83
2019-01-25T21:40:49.488Z,32.83
2019-01-25T21:43:20.380Z,32.10
2019-01-25T21:45:51.006Z,33.20
2019-01-25T21:48:22.311Z,34.90
2019-01-25T21:50:54.523Z,32.57
2019-01-25T21:53:25.394Z,32.40
2019-01-25T21:55:57.402Z,37.37
2019-01-25T21:58:29.667Z,34.30
2019-01-25T22:01:00.563Z,35.13
2019-01-25T22:03:32.169Z,34.47
2019-01-25T22:06:03.868Z,34.97
2019-01-25T22:08:34.710Z,30.63
2019-01-25T22:11:05.744Z,33.13
2019-01-25T22:13:38.926Z,36.70
2019-01-25T22:16:09.674Z,34.30
2019-01-25T22:18:40.372Z,32.47
2019-01-25T22:21:10.918Z,39.87
2019-01-25T22:23:41.751Z,38.87
2019-01-25T22:26:12.450Z,34.07
2019-01-25T22:28:44.306Z,37.07
2019-01-25T22:31:15.865Z,36.73
2019-01-25T22:33:48.166Z,33.63
2019-01-25T22:36:18.699Z,39.70
2019-01-25T22:38:49.179Z,35.93
2019-01-25T22:41:19.739Z,36.57
2019-01-25T22:43:49.999Z,40.77
2019-01-25T22:46:21.938Z,35.87
2019-01-25T22:48:53.187Z,35.60
2019-01-25T22:51:23.918Z,34.97
2019-01-25T22:53:54.728Z,34.53
2019-01-25T22:56:25.455Z,36.70
2019-01-25T22:58:56.421Z,33.50
2019-01-25T23:01:32.382Z,31.57
2019-01-25T23:04:43.545Z,36.00
2019-01-25T23:07:20.731Z,34.50
2019-01-25T23:09:53.725Z,36.17
2019-01-25T23:12:25.524Z,37.17
2019-01-25T23:14:56.528Z,33.87
2019-01-25T23:17:27.733Z,38.30
2019-01-25T23:19:58.839Z,36.50
2019-01-25T23:22:29.422Z,35.57
2019-01-25T23:25:00.760Z,31.67
2019-01-25T23:27:31.392Z,32.20
2019-01-25T23:30:02.190Z,35.80
2019-01-25T23:32:32.849Z,28.93
2019-01-25T23:35:03.582Z,29.10
2019-01-25T23:37:34.328Z,31.90
2019-01-25T23:40:05.916Z,30.80
2019-01-25T23:42:36.654Z,32.00
2019-01-25T23:45:08.047Z,34.30
2019-01-25T23:47:38.709Z,34.93
2019-01-25T23:50:11.417Z,30.90
2019-01-25T23:52:42.375Z,34.23
2019-01-25T23:55:13.433Z,32.60
2019-01-25T23:57:44.136Z,34.73
